Flight Track Log - Related Links

Times and Time Zones

All times are in EDT time to prevent confusion due to time zone crossing. See the ANT508 flight status page for this flight to view local times or setup timezone preferences in your user account.

Time Position Orientation Groundspeed Altitude Reporting Facility
EDT Latitude Longitude Course Direction KTS MPH feet Rate Location/Type
Tue 04:36:00 PM 53.2500 -113.5667 310° West 160 184 3,500  Level Edmonton Center
Tue 04:37:00 PM 53.2167 -113.5167 138° Southeast 230 265 5,600 2,300 Climbing Edmonton Center
Tue 04:38:00 PM 53.1667 -113.5333 191° South 230 265 8,100 2,400 Climbing Edmonton Center
Tue 04:39:00 PM 53.2000 -113.6167 304° West 270 311 10,400 2,100 Climbing Edmonton Center
Tue 04:40:00 PM 53.2500 -113.7500 302° West 330 380 12,300 2,650 Climbing Edmonton Center
Tue 04:41:00 PM 53.6528 -114.5056 310° West  Level FlightAware Approximate
Tue 04:41:00 PM 53.3000 -113.8667 306° West 330 380 15,700  Level Edmonton Center
Tue 04:42:00 PM 53.3500 -114.0000 302° West 340 391 18,200 2,500 Climbing Edmonton Center
Tue 04:43:00 PM 53.4167 -114.1500 307° West 370 426 20,700 2,300 Climbing Edmonton Center
Tue 04:44:00 PM 53.5167 -114.2000 343° North 410 472 22,800 2,050 Climbing Edmonton Center
Tue 04:45:00 PM 53.6333 -114.2667 341° North 430 495 24,800 1,950 Climbing Edmonton Center
Tue 04:46:00 PM 53.7167 -114.3833 320° Northwest 410 472 26,700 1,950 Climbing Edmonton Center
Tue 04:47:00 PM 53.7833 -114.5500 304° West 410 472 28,700 2,000 Climbing Edmonton Center
Tue 04:48:00 PM 53.8500 -114.6833 310° West 420 483 30,700 2,150 Climbing Edmonton Center
Tue 04:49:00 PM 53.9333 -114.8500 310° West 400 460 33,000 1,850 Climbing Edmonton Center
Tue 04:50:00 PM 54.0000 -114.9833 310° West 390 449 34,400 1,400 Climbing Edmonton Center
Tue 04:51:00 PM 54.0667 -115.1500 304° West 390 449 35,800 800 Climbing Edmonton Center
Tue 04:52:00 PM 54.1500 -115.2833 317° Northwest 390 449 36,000 100 Climbing Edmonton Center
Tue 04:53:00 PM 54.2000 -115.4167 303° West 400 460 36,000  Level Edmonton Center
Tue 04:54:00 PM 54.2833 -115.5833 311° West 400 460 36,000  Level Edmonton Center
Tue 04:55:00 PM 54.3500 -115.7500 305° West 400 460 36,000  Level Edmonton Center
Tue 04:56:00 PM 54.4333 -115.8833 317° Northwest 400 460 36,000  Level Edmonton Center
Tue 04:57:00 PM 54.4833 -116.0500 297° West 410 472 36,000  Level Edmonton Center
Tue 04:58:00 PM 54.5500 -116.1833 311° West 410 472 36,000  Level Edmonton Center
Tue 04:59:00 PM 54.6500 -116.3667 313° West 410 472 36,000  Level Edmonton Center
Tue 05:00:00 PM 54.7000 -116.5000 303° West 410 472 36,000  Level Edmonton Center
Tue 05:01:00 PM 54.7833 -116.6667 311° West 400 460 36,000  Level Edmonton Center
Tue 05:02:00 PM 54.8333 -116.8000 303° West 400 460 36,000  Level Edmonton Center
Tue 05:03:00 PM 54.9167 -116.9833 308° West 400 460 36,000  Level Edmonton Center
Tue 05:04:00 PM 54.9833 -117.1167 311° West 400 460 36,000  Level Edmonton Center
Tue 05:05:00 PM 55.0667 -117.2833 311° West 400 460 36,000  Level Edmonton Center
Tue 05:06:00 PM 55.1167 -117.4333 300° West 400 460 36,000  Level Edmonton Center
Tue 05:07:00 PM 55.1833 -117.6000 305° West 400 460 36,000  Level Edmonton Center
Tue 05:08:00 PM 55.2500 -117.7500 308° West 400 460 36,000  Level Edmonton Center
Tue 05:09:00 PM 55.3167 -117.9167 305° West 400 460 36,000  Level Edmonton Center
Tue 05:10:00 PM 55.4000 -118.0667 314° West 400 460 36,000  Level Edmonton Center
Tue 05:11:00 PM 55.4667 -118.2333 305° West 400 460 36,000  Level Edmonton Center
Tue 05:12:00 PM 55.5333 -118.3833 308° West 400 460 36,000  Level Edmonton Center
Tue 05:13:00 PM 55.6000 -118.5667 303° West 400 460 36,000  Level Edmonton Center
Tue 05:14:00 PM 55.6667 -118.7000 312° West 400 460 36,000  Level Edmonton Center
Tue 05:15:00 PM 55.7333 -118.8833 303° West 410 472 36,000  Level Edmonton Center
Tue 05:16:00 PM 55.8000 -119.0333 308° West 410 472 36,000  Level Edmonton Center
Tue 05:17:00 PM 55.8667 -119.2167 303° West 400 460 36,000  Level Edmonton Center
Tue 05:18:00 PM 55.9333 -119.3667 308° West 400 460 36,000  Level Edmonton Center
Tue 05:19:00 PM 56.0000 -119.5333 306° West 400 460 36,000  Level Edmonton Center
Tue 05:21:00 PM 56.1333 -119.8667 306° West 400 460 36,000  Level Edmonton Center
Tue 05:22:00 PM 56.2000 -120.0167 309° West 400 460 36,000  Level Edmonton Center
Tue 05:23:00 PM 56.2500 -120.2000 296° West 400 460 36,000  Level Edmonton Center
Tue 05:24:00 PM 56.3167 -120.3500 309° West 400 460 36,000  Level Edmonton Center
Tue 05:25:00 PM 56.3833 -120.5333 303° West 400 460 36,000  Level Edmonton Center
Tue 05:26:00 PM 56.4500 -120.7000 306° West 400 460 36,000  Level Edmonton Center
Tue 05:27:00 PM 56.5167 -120.8500 309° West 400 460 36,000  Level Edmonton Center
Tue 05:28:00 PM 56.5667 -121.0167 299° West 390 449 36,000  Level Edmonton Center
Tue 05:29:00 PM 56.6333 -121.1833 306° West 400 460 36,000  Level Edmonton Center
Tue 05:30:00 PM 56.7000 -121.3667 304° West 400 460 36,000  Level Edmonton Center
Tue 05:31:00 PM 56.7667 -121.5167 309° West 410 472 36,000  Level Edmonton Center
Tue 05:32:00 PM 56.8167 -121.7167 295° West 400 460 36,000  Level Edmonton Center
Tue 05:33:00 PM 56.8833 -121.8667 309° West 410 472 36,000  Level Edmonton Center
Tue 05:34:00 PM 56.9667 -122.0667 307° West 400 460 36,000  Level Edmonton Center
Tue 05:35:00 PM 57.0167 -122.2167 302° West 410 472 36,000  Level Edmonton Center
Tue 05:36:00 PM 57.0833 -122.4167 302° West 400 460 36,000  Level Edmonton Center
Tue 05:37:00 PM 57.1333 -122.5667 302° West 400 460 36,000  Level Edmonton Center
Tue 05:38:00 PM 57.2167 -122.7667 308° West 410 472 36,000  Level Edmonton Center
Tue 05:39:00 PM 57.2667 -122.9167 302° West 410 472 36,000  Level Edmonton Center
Tue 05:40:00 PM 57.3333 -123.1167 302° West 410 472 36,000  Level Edmonton Center
Tue 05:41:00 PM 57.4000 -123.2833 307° West 410 472 36,000  Level Edmonton Center
Tue 05:42:00 PM 57.4500 -123.4667 297° West 410 472 36,000  Level Edmonton Center
Tue 05:43:00 PM 57.5167 -123.6667 302° West 410 472 36,000  Level Edmonton Center
Tue 05:44:00 PM 57.5667 -123.8333 299° West 410 472 36,000  Level Edmonton Center
Tue 05:45:00 PM 57.6333 -124.0167 304° West 410 472 36,000  Level Edmonton Center
Tue 05:46:00 PM 57.7000 -124.1833 307° West 410 472 36,000  Level Edmonton Center
Tue 05:47:00 PM 57.7500 -124.3833 295° West 410 472 36,000  Level Edmonton Center
Tue 05:48:00 PM 57.8333 -124.5667 311° West 410 472 36,000  Level Edmonton Center
Tue 05:50:00 PM 57.9440 -124.9084 301° West  Level FlightAware Approximate
Tue 05:57:00 PM 58.3238 -126.1209 301° West  Level FlightAware Approximate
Tue 05:58:00 PM 58.3772 -126.2963 300° West  Level FlightAware Approximate
Tue 05:59:00 PM 58.4301 -126.4723 300° West  Level FlightAware Approximate
Tue 06:00:00 PM 58.4827 -126.6489 300° West  Level FlightAware Approximate
Tue 06:01:00 PM 58.5352 -126.8260 300° West  Level FlightAware Approximate
Tue 06:02:00 PM 58.5873 -127.0037 299° West  Level FlightAware Approximate
Tue 06:03:00 PM 58.6393 -127.1818 299° West  Level FlightAware Approximate
Tue 06:04:00 PM 58.6909 -127.3605 299° West  Level FlightAware Approximate
Tue 06:05:00 PM 58.7427 -127.5394 299° West  Level FlightAware Approximate
Tue 06:06:00 PM 58.7945 -127.7185 299° West  Level FlightAware Approximate
Tue 06:07:00 PM 58.8461 -127.8982 299° West  Level FlightAware Approximate
Tue 06:08:00 PM 58.8974 -128.0783 299° West  Level FlightAware Approximate
Tue 06:09:00 PM 58.9484 -128.2590 299° West  Level FlightAware Approximate
Tue 06:10:00 PM 58.9992 -128.4403 299° West  Level FlightAware Approximate
Tue 06:11:00 PM 59.0498 -128.6220 298° West  Level FlightAware Approximate
Tue 06:12:00 PM 59.1001 -128.8043 298° West  Level FlightAware Approximate
Tue 06:13:00 PM 59.1501 -128.9872 298° West  Level FlightAware Approximate
Tue 06:14:00 PM 59.1999 -129.1705 298° West  Level FlightAware Approximate
Tue 06:15:00 PM 59.2495 -129.3545 298° West  Level FlightAware Approximate
Tue 06:16:00 PM 59.2987 -129.5389 298° West  Level FlightAware Approximate
Tue 06:17:00 PM 59.3477 -129.7239 298° West  Level FlightAware Approximate
Tue 06:18:00 PM 59.3965 -129.9094 297° West  Level FlightAware Approximate
Tue 06:19:00 PM 59.4450 -130.0954 297° West  Level FlightAware Approximate
Tue 06:20:00 PM 59.4932 -130.2820 297° West  Level FlightAware Approximate
Tue 06:21:00 PM 59.5411 -130.4691 297° West  Level FlightAware Approximate
Tue 06:22:00 PM 59.5888 -130.6567 297° West  Level FlightAware Approximate
Tue 06:23:00 PM 59.6362 -130.8449 297° West  Level FlightAware Approximate
Tue 06:24:00 PM 59.6846 -131.0323 298° West  Level FlightAware Approximate
Tue 06:25:00 PM 59.7328 -131.2201 295° West  Level FlightAware Approximate
Tue 06:26:00 PM 59.7769 -131.4122 295° West  Level FlightAware Approximate
Tue 06:27:00 PM 59.8207 -131.6048 294° West  Level FlightAware Approximate
Tue 06:28:00 PM 59.8642 -131.7979 294° West  Level FlightAware Approximate
Tue 06:29:00 PM 59.9099 -131.9893 297° West  Level FlightAware Approximate
Tue 06:30:00 PM 59.9575 -132.1791 297° West  Level FlightAware Approximate
Tue 06:31:00 PM 60.0049 -132.3694 297° West  Level FlightAware Approximate
Tue 06:32:00 PM 60.0523 -132.5599 295° West  Level FlightAware Approximate
Tue 06:33:00 PM 60.0964 -132.7539 295° West  Level FlightAware Approximate
Tue 06:34:00 PM 60.1402 -132.9484 294° West  Level FlightAware Approximate
Tue 06:35:00 PM 60.1837 -133.1434 294° West  Level FlightAware Approximate
Tue 06:36:00 PM 60.2270 -133.3389 294° West  Level FlightAware Approximate
Tue 06:37:00 PM 60.2699 -133.5349 294° West  Level FlightAware Approximate
Tue 06:38:00 PM 60.3126 -133.7314 294° West  Level FlightAware Approximate
Tue 06:39:00 PM 60.3549 -133.9285 294° West  Level FlightAware Approximate
Tue 06:40:00 PM 60.3969 -134.1262 293° West  Level FlightAware Approximate
Tue 06:41:00 PM 60.4385 -134.3244 293° West  Level FlightAware Approximate
Tue 06:42:00 PM 60.4800 -134.5230 293° West  Level FlightAware Approximate
Tue 06:43:00 PM 60.5213 -134.7220 293° West  Level FlightAware Approximate
Tue 06:44:00 PM 60.5632 -134.9207 293° West  Level FlightAware Approximate
Tue 06:45:00 PM 60.6029 -135.1196 334° Northwest  Level FlightAware Approximate
Tue 06:46:00 PM 60.7000 -135.0667 20° North  Level FlightAware Approximate
Tue 06:47:00 PM 60.7095 -135.0673 20° North  Level Estimated
Tue 06:48:00 PM 60.7095 -135.0673 20° North  Level Estimated
Tue 06:49:00 PM 60.7095 -135.0673 20° North  Level Estimated
Tue 06:50:00 PM 60.7095 -135.0673 20° North  Level Estimated
Tue 06:51:00 PM 60.7095 -135.0673 20° North  Level Estimated
Tue 06:52:00 PM 60.7095 -135.0673 20° North  Level Estimated
Tue 06:53:00 PM 60.7095 -135.0673 20° North  Level Estimated
Tue 06:54:00 PM 60.7095 -135.0673 20° North  Level Estimated

Login

Don't have an account? Register now (free) for customized features, flight alerts, and more!